Time;durP1;ratioP1;P1;durP2;ratioP2;P2;SDS_P1;SDS_P2;PMS_P1;PMS_P2;Temp;Humidity;BMP_temperature;BMP_pressure;BME280_temperature;BME280_humidity;BME280_pressure;Samples;Min_cycle;Max_cycle;Signal;HPM_P1;HPM_P2
2022/07/06 00:02:09;;;;;;;;;;;;;;;13.50;100.00;102622.28;4995716;28;19913;-59
2022/07/06 00:04:34;;;;;;;;;;;;;;;13.50;100.00;102624.94;4995600;28;19914;-60
2022/07/06 00:06:59;;;;;;;;;;;;;;;13.52;100.00;102615.13;4995865;28;19929;-57
2022/07/06 00:09:24;;;;;;;;;;;;;;;13.52;100.00;102624.91;4994166;28;19917;-58
2022/07/06 00:11:49;;;;;;;;;;;;;;;13.50;100.00;102614.28;4995740;28;19913;-58
2022/07/06 00:14:15;;;;;;;;;;;;;;;13.46;100.00;102612.63;4994515;28;19963;-58
2022/07/06 00:16:40;;;;;;;;;;;;;;;13.44;100.00;102620.69;4994346;28;19953;-58
2022/07/06 00:19:05;;;;;;;;;;;;;;;13.45;100.00;102621.53;4995471;28;19921;-59
2022/07/06 00:21:30;;;;;;;;;;;;;;;13.44;100.00;102625.13;4995572;28;19917;-58
2022/07/06 00:23:56;;;;;;;;;;;;;;;13.40;100.00;102619.03;4995510;28;19914;-58
2022/07/06 00:26:21;;;;;;;;;;;;;;;13.38;100.00;102620.84;4995227;28;20036;-58
2022/07/06 00:28:46;;;;;;;;;;;;;;;13.37;100.00;102610.25;4995441;28;19914;-58
2022/07/06 00:31:12;;;;;;;;;;;;;;;13.37;100.00;102607.59;4995073;28;19920;-58
2022/07/06 00:33:37;;;;;;;;;;;;;;;13.34;100.00;102608.50;4995232;28;19909;-58
2022/07/06 00:36:02;;;;;;;;;;;;;;;13.33;100.00;102605.91;5010381;28;19918;-58
2022/07/06 00:38:27;;;;;;;;;;;;;;;13.30;100.00;102605.97;4995135;28;19910;-58
2022/07/06 00:40:53;;;;;;;;;;;;;;;13.27;100.00;102613.16;4994950;28;19918;-58
2022/07/06 00:43:18;;;;;;;;;;;;;;;13.24;100.00;102612.34;4993935;28;19983;-58
2022/07/06 00:45:44;;;;;;;;;;;;;;;13.22;100.00;102615.06;4993836;28;19917;-57
2022/07/06 00:48:09;;;;;;;;;;;;;;;13.21;100.00;102605.31;5010166;28;19910;-58
2022/07/06 00:50:35;;;;;;;;;;;;;;;13.19;100.00;102611.59;4994681;28;19917;-58
2022/07/06 00:53:01;;;;;;;;;;;;;;;13.17;100.00;102610.75;4995200;28;19909;-58
2022/07/06 00:55:28;;;;;;;;;;;;;;;13.17;100.00;102616.97;4994692;28;19914;-58
2022/07/06 00:57:53;;;;;;;;;;;;;;;13.17;100.00;102616.97;4994873;28;20574;-58
2022/07/06 01:00:20;;;;;;;;;;;;;;;13.18;100.00;102620.50;4994583;28;19997;-58
2022/07/06 01:02:46;;;;;;;;;;;;;;;13.19;100.00;102611.59;4977379;28;20008;-58
2022/07/06 01:05:12;;;;;;;;;;;;;;;13.19;100.00;102617.78;4994535;28;19909;-59
2022/07/06 01:07:38;;;;;;;;;;;;;;;13.19;100.00;102616.94;4994574;28;19921;-59
2022/07/06 01:10:04;;;;;;;;;;;;;;;13.18;100.00;102615.19;4994403;28;20285;-59
2022/07/06 01:12:30;;;;;;;;;;;;;;;13.15;100.00;102612.63;4994656;28;19949;-59
2022/07/06 01:14:56;;;;;;;;;;;;;;;13.14;100.00;102616.19;4994657;28;19972;-58
2022/07/06 01:17:21;;;;;;;;;;;;;;;13.13;100.00;102612.63;4993085;28;19924;-59
2022/07/06 01:19:47;;;;;;;;;;;;;;;13.11;100.00;102610.00;4994388;28;19968;-59
2022/07/06 01:22:12;;;;;;;;;;;;;;;13.08;100.00;102604.78;5009321;28;19914;-59
2022/07/06 01:24:37;;;;;;;;;;;;;;;13.07;100.00;102599.53;4994109;28;19909;-59
2022/07/06 01:27:06;;;;;;;;;;;;;;;13.08;100.00;102601.25;4994404;28;20469;-59
2022/07/06 01:29:32;;;;;;;;;;;;;;;13.09;100.00;102603.00;4994464;28;20389;-59
2022/07/06 01:31:57;;;;;;;;;;;;;;;13.07;100.00;102604.84;4994029;28;19914;-59
2022/07/06 01:34:23;;;;;;;;;;;;;;;13.08;100.00;102604.78;4994052;28;20329;-57
2022/07/06 01:36:48;;;;;;;;;;;;;;;13.08;100.00;102609.22;4994100;28;19999;-59
2022/07/06 01:39:13;;;;;;;;;;;;;;;13.07;100.00;102602.19;4993984;28;19920;-59
2022/07/06 01:41:39;;;;;;;;;;;;;;;13.07;100.00;102604.84;4993600;28;19972;-58
2022/07/06 01:44:04;;;;;;;;;;;;;;;13.06;100.00;102605.75;4992906;28;19925;-58
2022/07/06 01:46:30;;;;;;;;;;;;;;;13.03;100.00;102605.81;4993986;28;19939;-58
2022/07/06 01:48:56;;;;;;;;;;;;;;;12.98;100.00;102602.41;4993990;28;19964;-58
2022/07/06 01:51:21;;;;;;;;;;;;;;;12.94;100.00;102605.16;4993477;28;20000;-58
2022/07/06 01:53:46;;;;;;;;;;;;;;;12.89;100.00;102598.19;4992627;28;19914;-57
2022/07/06 01:56:12;;;;;;;;;;;;;;;12.87;100.00;102602.72;4993612;28;19917;-57
2022/07/06 01:58:37;;;;;;;;;;;;;;;12.88;100.00;102600.00;4992677;28;19955;-58
2022/07/06 02:01:07;;;;;;;;;;;;;;;12.90;100.00;102605.28;4993861;28;20289;-57
2022/07/06 02:03:32;;;;;;;;;;;;;;;12.88;100.00;102597.34;4993749;28;20392;-57
2022/07/06 02:05:57;;;;;;;;;;;;;;;12.85;100.00;102596.53;4993209;28;19922;-58
2022/07/06 02:08:22;;;;;;;;;;;;;;;12.85;100.00;102592.13;4993365;28;20480;-58
2022/07/06 02:10:48;;;;;;;;;;;;;;;12.87;100.00;102597.38;4993382;28;19909;-58
2022/07/06 02:13:13;;;;;;;;;;;;;;;12.84;100.00;102590.38;4992305;28;20388;-58
2022/07/06 02:15:38;;;;;;;;;;;;;;;12.80;100.00;102588.72;4993299;28;19914;-58
2022/07/06 02:18:03;;;;;;;;;;;;;;;12.76;100.00;102590.56;4993257;28;19963;-59
2022/07/06 02:20:29;;;;;;;;;;;;;;;12.74;100.00;102592.38;4993370;28;20293;-59
2022/07/06 02:22:54;;;;;;;;;;;;;;;12.75;100.00;102595.94;4993156;28;19928;-58
2022/07/06 02:25:19;;;;;;;;;;;;;;;12.75;100.00;102606.56;4991974;28;19913;-59
2022/07/06 02:27:44;;;;;;;;;;;;;;;12.75;100.00;102604.75;4993253;28;19913;-58
2022/07/06 02:30:10;;;;;;;;;;;;;;;12.76;100.00;102610.94;5008538;28;19913;-58
2022/07/06 02:32:35;;;;;;;;;;;;;;;12.75;100.00;102602.09;4992873;28;19910;-59
2022/07/06 02:35:00;;;;;;;;;;;;;;;12.73;100.00;102598.59;4993349;28;19954;-58
2022/07/06 02:37:25;;;;;;;;;;;;;;;12.70;100.00;102597.81;4992375;28;19957;-58
2022/07/06 02:39:51;;;;;;;;;;;;;;;12.68;100.00;102595.19;4993197;28;19967;-58
2022/07/06 02:42:16;;;;;;;;;;;;;;;12.67;100.00;102597.91;4992675;28;19976;-58
2022/07/06 02:44:41;;;;;;;;;;;;;;;12.67;100.00;102600.56;4993034;28;19913;-59
2022/07/06 02:47:06;;;;;;;;;;;;;;;12.68;100.00;102597.00;4975741;28;19913;-58
2022/07/06 02:49:32;;;;;;;;;;;;;;;12.68;100.00;102603.16;4993165;28;19936;-58
2022/07/06 02:51:57;;;;;;;;;;;;;;;12.69;100.00;102602.25;4992626;28;19913;-58
2022/07/06 02:54:22;;;;;;;;;;;;;;;12.70;100.00;102600.47;4992809;28;20523;-58
2022/07/06 02:56:52;;;;;;;;;;;;;;;12.70;100.00;102600.47;4992862;28;19914;-58
2022/07/06 02:59:17;;;;;;;;;;;;;;;12.72;100.00;102601.31;4992724;28;19920;-59
2022/07/06 03:01:42;;;;;;;;;;;;;;;12.73;100.00;102608.38;4993230;28;19913;-59
2022/07/06 03:04:07;;;;;;;;;;;;;;;12.76;100.00;102595.88;4992759;28;20369;-59
2022/07/06 03:06:33;;;;;;;;;;;;;;;12.78;100.00;102604.69;4992640;28;20400;-59
2022/07/06 03:08:58;;;;;;;;;;;;;;;12.82;100.00;102596.63;4992824;28;19913;-59
2022/07/06 03:11:23;;;;;;;;;;;;;;;12.85;100.00;102608.06;5007622;28;20040;-59
2022/07/06 03:13:48;;;;;;;;;;;;;;;12.88;100.00;102617.75;4975251;28;19944;-59
2022/07/06 03:16:13;;;;;;;;;;;;;;;12.91;100.00;102620.31;4992670;28;20011;-59
2022/07/06 03:18:39;;;;;;;;;;;;;;;12.97;100.00;102621.94;4992522;28;20020;-59
2022/07/06 03:21:04;;;;;;;;;;;;;;;13.02;100.00;102612.03;4992542;28;20000;-58
2022/07/06 03:23:30;;;;;;;;;;;;;;;13.05;100.00;102615.50;4992567;28;19949;-59
2022/07/06 03:25:55;;;;;;;;;;;;;;;13.03;100.00;102598.72;4992682;28;19964;-59
2022/07/06 03:28:20;;;;;;;;;;;;;;;13.05;100.00;102598.69;4992369;28;19913;-58
2022/07/06 03:30:46;;;;;;;;;;;;;;;13.04;100.00;102602.25;4992672;28;19914;-58
2022/07/06 03:33:11;;;;;;;;;;;;;;;13.03;100.00;102592.53;4992325;28;19968;-58
2022/07/06 03:35:36;;;;;;;;;;;;;;;13.01;100.00;102600.53;5007419;28;19914;-58
2022/07/06 03:38:02;;;;;;;;;;;;;;;13.00;100.00;102595.28;4992605;28;19921;-58
2022/07/06 03:40:27;;;;;;;;;;;;;;;13.00;100.00;102606.78;4992410;28;20262;-59
2022/07/06 03:42:53;;;;;;;;;;;;;;;13.00;100.00;102604.09;4992234;28;20085;-58
2022/07/06 03:45:18;;;;;;;;;;;;;;;13.04;100.00;102605.75;4992266;28;19914;-58
2022/07/06 03:47:43;;;;;;;;;;;;;;;13.06;100.00;102603.94;5007644;28;19925;-58
2022/07/06 03:50:08;;;;;;;;;;;;;;;13.11;100.00;102591.41;4996131;28;19909;-58
2022/07/06 03:52:34;;;;;;;;;;;;;;;13.20;100.00;102592.94;4995812;28;19914;-58
2022/07/06 03:55:00;;;;;;;;;;;;;;;13.29;100.00;102591.81;4996185;28;20012;-57
2022/07/06 03:57:25;;;;;;;;;;;;;;;13.38;100.00;102583.59;4994452;28;19925;-58
2022/07/06 03:59:51;;;;;;;;;;;;;;;13.50;100.00;102592.13;4996266;28;20008;-59
2022/07/06 04:02:16;;;;;;;;;;;;;;;13.63;100.00;102590.00;4995682;28;19921;-59
2022/07/06 04:04:41;;;;;;;;;;;;;;;13.73;100.00;102595.00;4995708;28;19913;-58
2022/07/06 04:07:06;;;;;;;;;;;;;;;13.81;100.00;102592.13;4995629;28;19921;-58
2022/07/06 04:09:31;;;;;;;;;;;;;;;13.90;100.00;102590.94;4978345;28;19914;-58
2022/07/06 04:11:57;;;;;;;;;;;;;;;13.97;100.00;102595.16;4995682;28;19913;-58
2022/07/06 04:14:22;;;;;;;;;;;;;;;14.06;100.00;102591.34;4994267;28;19913;-58
2022/07/06 04:16:47;;;;;;;;;;;;;;;14.14;100.00;102602.63;4995614;28;19918;-57
2022/07/06 04:19:13;;;;;;;;;;;;;;;14.21;100.00;102598.84;4995447;28;20000;-58
2022/07/06 04:21:38;;;;;;;;;;;;;;;14.29;100.00;102603.94;4995326;28;19917;-58
2022/07/06 04:24:04;;;;;;;;;;;;;;;14.34;100.00;102596.66;4995542;28;20016;-57
2022/07/06 04:26:29;;;;;;;;;;;;;;;14.38;99.77;102595.63;4995545;28;20013;-58
2022/07/06 04:28:54;;;;;;;;;;;;;;;14.45;99.71;102591.00;5010354;28;19945;-57
2022/07/06 04:31:19;;;;;;;;;;;;;;;14.51;99.00;102581.91;4995169;28;19921;-59
2022/07/06 04:33:45;;;;;;;;;;;;;;;14.55;98.69;102591.53;4995178;28;19918;-59
2022/07/06 04:36:10;;;;;;;;;;;;;;;14.58;97.71;102592.31;4995071;28;20469;-59
2022/07/06 04:38:36;;;;;;;;;;;;;;;14.61;96.19;102593.13;4995005;28;19952;-59
2022/07/06 04:41:01;;;;;;;;;;;;;;;14.67;96.29;102598.28;4995213;28;19942;-58
2022/07/06 04:43:26;;;;;;;;;;;;;;;14.70;94.74;102599.03;4994766;28;19910;-59
2022/07/06 04:45:51;;;;;;;;;;;;;;;14.72;94.91;102594.53;4995051;28;20312;-59
2022/07/06 04:48:17;;;;;;;;;;;;;;;14.75;94.29;102604.22;4994888;28;20369;-59
2022/07/06 04:50:42;;;;;;;;;;;;;;;14.85;94.14;102602.13;4994823;28;20277;-59
2022/07/06 04:53:07;;;;;;;;;;;;;;;14.87;93.35;102598.47;5009455;28;19921;-59
2022/07/06 04:55:32;;;;;;;;;;;;;;;14.89;93.78;102598.41;4995043;28;19937;-59
2022/07/06 04:57:58;;;;;;;;;;;;;;;14.86;93.18;102596.72;5009605;28;19917;-58
2022/07/06 05:00:23;;;;;;;;;;;;;;;14.84;92.38;102603.03;4992847;28;19922;-59
2022/07/06 05:02:48;;;;;;;;;;;;;;;14.83;92.33;102604.81;4994580;28;19960;-58
2022/07/06 05:05:13;;;;;;;;;;;;;;;14.86;92.34;102603.84;4993113;28;20463;-59
2022/07/06 05:07:39;;;;;;;;;;;;;;;14.79;92.24;102613.00;4994478;28;20016;-58
2022/07/06 05:10:08;;;;;;;;;;;;;;;14.79;91.55;102610.34;4993131;28;19964;-59
2022/07/06 05:12:33;;;;;;;;;;;;;;;14.78;91.22;102612.09;4994450;28;19910;-58
2022/07/06 05:14:59;;;;;;;;;;;;;;;14.83;90.78;102623.50;4993410;28;19918;-59
2022/07/06 05:17:25;;;;;;;;;;;;;;;14.86;91.95;102619.84;5009199;28;19924;-58
2022/07/06 05:19:50;;;;;;;;;;;;;;;14.90;90.50;102618.84;4994412;28;19988;-59
2022/07/06 05:22:15;;;;;;;;;;;;;;;14.92;90.85;102630.31;4994528;28;19917;-59
2022/07/06 05:24:40;;;;;;;;;;;;;;;14.96;90.04;102620.41;4994106;28;20374;-59
2022/07/06 05:27:06;;;;;;;;;;;;;;;14.98;90.16;102624.75;4994490;28;19959;-59
2022/07/06 05:29:31;;;;;;;;;;;;;;;15.00;90.51;102627.38;4994173;28;20019;-59
2022/07/06 05:31:56;;;;;;;;;;;;;;;15.01;90.89;102627.34;4994231;28;19953;-59
2022/07/06 05:34:21;;;;;;;;;;;;;;;15.06;90.54;102627.16;4993732;28;19909;-58
2022/07/06 05:36:47;;;;;;;;;;;;;;;15.07;90.71;102629.75;4993852;28;19918;-59
2022/07/06 05:39:12;;;;;;;;;;;;;;;15.10;90.86;102623.44;4993872;28;19925;-59
2022/07/06 05:41:37;;;;;;;;;;;;;;;15.15;90.32;102621.50;4993908;28;19913;-59
2022/07/06 05:44:03;;;;;;;;;;;;;;;15.16;89.75;102625.91;4993731;28;19917;-59
2022/07/06 05:46:28;;;;;;;;;;;;;;;15.15;89.86;102621.50;4992516;28;19913;-59
2022/07/06 05:51:37;;;;;;;;;;;;;;;15.19;89.54;102617.81;4993692;28;20036;-59
2022/07/06 05:54:02;;;;;;;;;;;;;;;15.27;89.86;102622.88;4993579;28;19929;-59
2022/07/06 05:56:28;;;;;;;;;;;;;;;15.26;89.39;102615.78;4992232;28;19964;-59
2022/07/06 05:58:53;;;;;;;;;;;;;;;15.33;89.10;102625.31;4993304;28;20366;-59
2022/07/06 06:01:18;;;;;;;;;;;;;;;15.40;88.34;102620.63;4993207;28;19995;-58
2022/07/06 06:03:43;;;;;;;;;;;;;;;15.46;88.55;102623.06;4993281;28;19913;-58
2022/07/06 06:06:09;;;;;;;;;;;;;;;15.53;88.65;102621.91;5008267;28;19928;-58
2022/07/06 06:08:34;;;;;;;;;;;;;;;15.60;88.42;102625.22;4993316;28;20293;-59
2022/07/06 06:10:59;;;;;;;;;;;;;;;15.66;88.16;102616.97;4993490;28;19943;-58
2022/07/06 06:13:24;;;;;;;;;;;;;;;15.73;87.78;102622.97;4992257;28;19964;-58
2022/07/06 06:15:50;;;;;;;;;;;;;;;15.78;88.96;102625.44;4993137;28;19913;-59
2022/07/06 06:18:17;;;;;;;;;;;;;;;15.82;87.09;102619.97;4991456;28;20301;-58
2022/07/06 06:20:42;;;;;;;;;;;;;;;15.96;87.24;102621.22;4993145;28;19910;-59
2022/07/06 06:23:08;;;;;;;;;;;;;;;16.00;86.54;102626.38;4993092;28;19945;-58
2022/07/06 06:25:37;;;;;;;;;;;;;;;16.07;85.55;102621.66;4993011;28;19960;-58
2022/07/06 06:28:03;;;;;;;;;;;;;;;16.18;85.26;102618.56;4993143;28;20505;-58
2022/07/06 06:30:29;;;;;;;;;;;;;;;16.28;84.87;102630.63;4991759;28;19925;-59
2022/07/06 06:33:13;;;;;;;;;;;;;;;16.30;84.78;102638.59;4991682;28;19914;-57
2022/07/06 06:35:48;;;;;;;;;;;;;;;16.35;83.98;102636.59;4992657;28;19910;-57
2022/07/06 06:38:14;;;;;;;;;;;;;;;16.43;82.83;102639.81;4992988;28;19915;-58
2022/07/06 06:40:40;;;;;;;;;;;;;;;16.49;82.49;102636.91;4992865;28;19916;-57
2022/07/06 06:43:05;;;;;;;;;;;;;;;16.59;80.77;102629.38;4992853;28;19914;-58
2022/07/06 06:45:30;;;;;;;;;;;;;;;16.66;80.59;102627.31;4992606;28;19916;-58
2022/07/06 06:47:56;;;;;;;;;;;;;;;16.67;80.61;102629.06;4992945;28;19910;-58
2022/07/06 06:50:23;;;;;;;;;;;;;;;16.69;79.91;102633.41;4992588;28;19913;-58
2022/07/06 06:52:48;;;;;;;;;;;;;;;16.76;79.51;102642.03;4992712;28;19961;-58
2022/07/06 06:55:14;;;;;;;;;;;;;;;16.82;79.09;102631.06;4992461;28;19922;-58
2022/07/06 06:57:39;;;;;;;;;;;;;;;16.94;79.29;102635.06;4992562;28;19976;-58
2022/07/06 07:00:04;;;;;;;;;;;;;;;17.01;78.41;102633.88;4992646;28;19922;-58
2022/07/06 07:02:30;;;;;;;;;;;;;;;17.13;77.53;102636.94;4991463;28;20436;-58
2022/07/06 07:04:55;;;;;;;;;;;;;;;17.19;74.77;102639.34;4992495;28;20332;-59
2022/07/06 07:07:20;;;;;;;;;;;;;;;17.20;74.75;102643.78;4992245;28;20443;-59
2022/07/06 07:09:45;;;;;;;;;;;;;;;17.01;71.63;102638.34;4992417;28;19949;-58
2022/07/06 07:12:11;;;;;;;;;;;;;;;17.12;73.00;102635.19;4992499;28;20004;-59
2022/07/06 07:14:37;;;;;;;;;;;;;;;17.28;72.15;102627.38;4992370;28;19914;-59
2022/07/06 07:17:02;;;;;;;;;;;;;;;17.44;72.70;102638.25;4992645;28;19917;-59
2022/07/06 07:19:27;;;;;;;;;;;;;;;17.47;71.53;102641.66;4992403;28;19914;-58
2022/07/06 07:21:53;;;;;;;;;;;;;;;17.55;69.54;102635.94;4992579;28;20040;-58
2022/07/06 07:24:18;;;;;;;;;;;;;;;17.69;69.33;102638.84;4995018;28;20369;-59
2022/07/06 07:26:43;;;;;;;;;;;;;;;17.76;69.94;102634.09;4996480;28;19917;-59
2022/07/06 07:29:08;;;;;;;;;;;;;;;17.82;68.53;102628.44;4996352;28;19936;-58
2022/07/06 07:31:33;;;;;;;;;;;;;;;17.93;70.02;102632.41;4996275;28;19914;-59
2022/07/06 07:33:59;;;;;;;;;;;;;;;18.05;70.12;102631.00;4996393;28;20290;-58
2022/07/06 07:36:24;;;;;;;;;;;;;;;18.13;65.77;102626.13;4995818;28;20282;-59
2022/07/06 07:38:50;;;;;;;;;;;;;;;18.18;58.97;102629.47;4996244;28;19909;-58
2022/07/06 07:41:16;;;;;;;;;;;;;;;18.14;59.11;102628.75;4996040;28;19959;-58
2022/07/06 07:43:41;;;;;;;;;;;;;;;18.36;56.77;102633.06;4996065;28;19914;-58
2022/07/06 07:46:07;;;;;;;;;;;;;;;18.51;55.20;102626.06;4995771;28;19941;-59
2022/07/06 07:48:32;;;;;;;;;;;;;;;18.61;54.24;102629.16;4978746;28;19914;-58
2022/07/06 07:50:57;;;;;;;;;;;;;;;18.45;55.13;102631.72;4994809;28;20385;-59
2022/07/06 07:53:22;;;;;;;;;;;;;;;18.43;57.89;102626.44;4994724;28;20387;-58
2022/07/06 07:55:48;;;;;;;;;;;;;;;18.32;57.97;102626.09;5010778;28;19914;-59
2022/07/06 07:58:13;;;;;;;;;;;;;;;18.62;54.15;102625.50;4995950;28;19914;-59
2022/07/06 08:00:38;;;;;;;;;;;;;;;18.91;60.31;102618.69;4995883;28;19913;-59
2022/07/06 08:03:03;;;;;;;;;;;;;;;18.88;54.56;102617.97;4995853;28;19971;-59
2022/07/06 08:05:29;;;;;;;;;;;;;;;19.18;51.87;102614.66;4995722;28;19913;-59
2022/07/06 08:07:54;;;;;;;;;;;;;;;19.40;51.12;102609.88;4994710;28;20310;-57
2022/07/06 08:10:20;;;;;;;;;;;;;;;19.49;49.16;102616.56;4995654;28;19914;-58
2022/07/06 08:12:45;;;;;;;;;;;;;;;19.49;52.40;102609.34;4995648;28;20032;-58
2022/07/06 08:15:10;;;;;;;;;;;;;;;19.63;53.52;102608.59;5010648;28;19995;-59
2022/07/06 08:17:36;;;;;;;;;;;;;;;19.88;47.53;102614.47;4995445;28;19913;-59
2022/07/06 08:20:01;;;;;;;;;;;;;;;20.19;47.79;102613.56;4995642;28;19914;-59
2022/07/06 08:22:27;;;;;;;;;;;;;;;20.52;51.55;102615.25;4995125;28;19918;-59
2022/07/06 08:24:52;;;;;;;;;;;;;;;20.55;54.66;102616.91;4995332;28;19926;-59
2022/07/06 08:27:17;;;;;;;;;;;;;;;20.53;47.38;102608.91;4995420;28;19914;-59
2022/07/06 08:29:43;;;;;;;;;;;;;;;20.71;45.23;102615.06;4995250;28;20350;-58
2022/07/06 08:32:08;;;;;;;;;;;;;;;20.51;44.28;102607.28;4995302;28;19913;-58
2022/07/06 08:34:33;;;;;;;;;;;;;;;20.55;45.50;102600.75;4994633;28;19972;-58
2022/07/06 08:36:59;;;;;;;;;;;;;;;20.61;46.42;102598.59;4993799;28;19917;-58
2022/07/06 08:39:24;;;;;;;;;;;;;;;20.63;44.94;102599.34;4995065;28;20024;-58
2022/07/06 08:41:50;;;;;;;;;;;;;;;20.77;46.45;102606.63;4995167;28;19914;-58
2022/07/06 08:44:16;;;;;;;;;;;;;;;20.68;42.87;102593.69;4994931;28;20389;-58
2022/07/06 08:46:42;;;;;;;;;;;;;;;20.77;44.01;102598.53;4994430;28;20028;-58
2022/07/06 08:49:07;;;;;;;;;;;;;;;20.89;45.51;102605.00;4995014;28;20007;-58
2022/07/06 08:51:35;;;;;;;;;;;;;;;20.95;42.64;102604.63;4995032;28;19917;-58
2022/07/06 08:54:01;;;;;;;;;;;;;;;20.80;41.59;102600.19;4995054;28;19913;-58
2022/07/06 08:56:27;;;;;;;;;;;;;;;20.67;41.75;102607.25;4994397;28;20317;-58
2022/07/06 08:58:53;;;;;;;;;;;;;;;20.67;40.98;102602.72;4992250;28;20384;-58
2022/07/06 09:01:19;;;;;;;;;;;;;;;21.00;40.91;102606.19;4993869;28;19916;-58
2022/07/06 09:03:45;;;;;;;;;;;;;;;21.13;41.00;102607.16;5009708;28;19909;-58
2022/07/06 09:06:10;;;;;;;;;;;;;;;20.81;42.42;102607.31;4994681;28;19921;-59
2022/07/06 09:08:39;;;;;;;;;;;;;;;21.01;41.24;102608.78;4994480;28;19922;-58
2022/07/06 09:11:04;;;;;;;;;;;;;;;21.06;43.11;102609.38;4994510;28;19968;-59
2022/07/06 09:13:30;;;;;;;;;;;;;;;21.14;44.78;102606.22;5009490;28;19913;-59
2022/07/06 09:15:55;;;;;;;;;;;;;;;21.14;40.94;102613.41;5009606;28;19980;-59
2022/07/06 09:18:23;;;;;;;;;;;;;;;21.44;42.64;102608.81;4994331;28;20021;-59
2022/07/06 09:20:48;;;;;;;;;;;;;;;21.68;41.13;102610.94;5009319;28;19952;-60
2022/07/06 09:23:15;;;;;;;;;;;;;;;22.04;38.62;102609.50;4994270;28;19956;-59
2022/07/06 09:25:40;;;;;;;;;;;;;;;22.32;37.61;102607.69;4994391;28;19933;-59
2022/07/06 09:28:06;;;;;;;;;;;;;;;22.65;42.80;102610.91;4994369;28;20277;-59
2022/07/06 09:30:31;;;;;;;;;;;;;;;;;;4993135;28;19914;-59
2022/07/06 09:32:57;;;;;;;;;;;;;;;22.83;38.70;102620.47;4994183;28;19941;-60
2022/07/06 09:35:27;;;;;;;;;;;;;;;23.14;39.79;102625.59;4993999;28;19977;-59
2022/07/06 09:38:01;;;;;;;;;;;;;;;22.94;38.46;102627.81;5009084;28;19961;-59
2022/07/06 09:40:26;;;;;;;;;;;;;;;23.23;41.38;102631.22;4992648;28;19909;-60
2022/07/06 09:43:06;;;;;;;;;;;;;;;23.27;42.21;102631.03;4993771;28;20001;-59
2022/07/06 09:45:33;;;;;;;;;;;;;;;23.30;37.59;102628.09;4994162;28;19910;-59
2022/07/06 09:48:05;;;;;;;;;;;;;;;23.46;38.46;102627.88;5009098;28;19925;-59
2022/07/06 09:50:37;;;;;;;;;;;;;;;23.21;38.89;102635.00;4993963;28;19909;-60
2022/07/06 09:53:03;;;;;;;;;;;;;;;23.43;37.96;102636.19;4993708;28;19910;-59
2022/07/06 09:55:29;;;;;;;;;;;;;;;23.47;36.21;102635.03;5008979;28;20419;-59
2022/07/06 09:57:55;;;;;;;;;;;;;;;23.53;36.33;102630.03;4993815;28;19914;-59
2022/07/06 10:00:20;;;;;;;;;;;;;;;23.71;35.75;102625.13;4993596;28;19924;-59
2022/07/06 10:02:47;;;;;;;;;;;;;;;23.87;37.36;102626.69;4993303;28;20262;-59
2022/07/06 10:05:13;;;;;;;;;;;;;;;24.46;34.29;102622.38;4993604;28;19925;-59
2022/07/06 10:07:39;;;;;;;;;;;;;;;24.33;33.05;102626.00;4993117;28;19918;-60
2022/07/06 10:10:04;;;;;;;;;;;;;;;24.05;33.01;102627.22;4992419;28;19914;-60
2022/07/06 10:12:30;;;;;;;;;;;;;;;24.86;34.69;102616.66;4993401;28;19914;-60
2022/07/06 10:14:55;;;;;;;;;;;;;;;25.02;32.29;102622.56;4993629;28;20282;-60
2022/07/06 10:17:21;;;;;;;;;;;;;;;24.67;32.97;102626.19;4993457;28;19917;-59
2022/07/06 10:19:46;;;;;;;;;;;;;;;24.61;34.95;102629.31;4993124;28;19916;-60
2022/07/06 10:22:12;;;;;;;;;;;;;;;25.27;33.39;102626.06;4991036;28;19960;-60
2022/07/06 10:24:43;;;;;;;;;;;;;;;25.96;31.68;102625.06;4991098;28;19914;-60
2022/07/06 10:27:09;;;;;;;;;;;;;;;26.39;34.10;102623.31;4993169;28;19962;-58
2022/07/06 10:29:34;;;;;;;;;;;;;;;26.33;31.28;102623.84;4993042;28;19945;-59
2022/07/06 10:32:00;;;;;;;;;;;;;;;26.03;31.53;102619.97;4993266;28;19964;-61
2022/07/06 10:34:25;;;;;;;;;;;;;;;25.85;30.95;102619.66;4991698;28;19920;-59
2022/07/06 10:36:52;;;;;;;;;;;;;;;25.18;33.92;102610.53;4975475;28;19918;-60
2022/07/06 10:42:33;;;;;;;;;;;;;;;26.16;30.87;102615.28;4993275;28;19925;-59
2022/07/06 10:44:59;;;;;;;;;;;;;;;26.75;31.88;102609.47;4992961;28;20093;-59
2022/07/06 10:47:27;;;;;;;;;;;;;;;26.32;29.68;102616.72;5007864;28;20000;-60
2022/07/06 10:49:58;;;;;;;;;;;;;;;26.53;30.73;102610.44;4992862;28;20382;-59
2022/07/06 10:52:44;;;;;;;;;;;;;;;26.89;31.67;102605.56;4992745;28;19914;-59
2022/07/06 10:55:27;;;;;;;;;;;;;;;27.26;29.71;102608.63;4991078;28;20377;-59
2022/07/06 10:57:52;;;;;;;;;;;;;;;27.61;29.56;102601.94;4990841;28;19918;-60
2022/07/06 11:00:17;;;;;;;;;;;;;;;28.02;28.46;102596.41;4992623;28;19918;-60
2022/07/06 11:02:42;;;;;;;;;;;;;;;27.85;28.33;102594.38;4992561;28;19914;-60
2022/07/06 11:05:12;;;;;;;;;;;;;;;27.12;27.42;102589.94;5007515;28;19920;-60
2022/07/06 11:07:48;;;;;;;;;;;;;;;26.72;30.36;102580.69;4992413;28;19967;-58
2022/07/06 11:10:14;;;;;;;;;;;;;;;27.25;29.81;102584.28;4992636;28;19945;-59
2022/07/06 11:12:44;;;;;;;;;;;;;;;26.84;28.54;102591.53;4990132;28;19972;-59
2022/07/06 11:15:09;;;;;;;;;;;;;;;27.78;27.87;102575.88;4991679;28;19910;-59
2022/07/06 11:17:34;;;;;;;;;;;;;;;27.90;27.40;102581.22;5007417;28;19925;-59
2022/07/06 11:20:10;;;;;;;;;;;;;;;27.66;27.90;102574.31;4992776;28;19956;-59
2022/07/06 11:22:37;;;;;;;;;;;;;;;27.67;29.29;102558.81;4992276;28;20259;-60
2022/07/06 11:25:02;;;;;;;;;;;;;;;27.76;29.92;102558.84;4992748;28;19960;-59
2022/07/06 11:27:28;;;;;;;;;;;;;;;28.46;27.82;102555.16;4992430;28;19913;-60
2022/07/06 11:29:54;;;;;;;;;;;;;;;28.27;27.41;102551.47;4992537;28;19917;-60
2022/07/06 11:32:23;;;;;;;;;;;;;;;28.11;27.39;102560.19;4991216;28;19914;-58
2022/07/06 11:34:48;;;;;;;;;;;;;;;28.09;26.75;102545.84;4991185;28;19913;-60
2022/07/06 11:37:14;;;;;;;;;;;;;;;28.17;28.08;102552.44;4992070;28;19917;-58
2022/07/06 11:39:41;;;;;;;;;;;;;;;28.14;28.08;102547.31;4992338;28;19910;-59
2022/07/06 11:42:07;;;;;;;;;;;;;;;28.01;27.17;102544.84;4992264;28;19920;-60
2022/07/06 11:44:33;;;;;;;;;;;;;;;28.16;27.74;102546.16;4992350;28;20008;-60
2022/07/06 11:47:01;;;;;;;;;;;;;;;28.55;26.76;102546.09;4991015;28;19910;-59
2022/07/06 11:49:27;;;;;;;;;;;;;;;28.20;26.67;102550.31;4991873;28;20300;-60
2022/07/06 11:51:52;;;;;;;;;;;;;;;27.80;27.46;102551.25;4992346;28;20366;-60
2022/07/06 11:54:18;;;;;;;;;;;;;;;27.21;27.61;102555.66;4992328;28;19910;-60
2022/07/06 11:57:03;;;;;;;;;;;;;;;27.07;28.31;102546.00;4991992;28;19914;-59
2022/07/06 11:59:33;;;;;;;;;;;;;;;26.22;31.97;102558.75;4992550;28;20288;-60
2022/07/06 12:01:58;;;;;;;;;;;;;;;26.46;30.49;102558.50;5007635;28;19913;-59
2022/07/06 12:04:24;;;;;;;;;;;;;;;26.52;33.27;102548.94;4992145;28;19909;-59
2022/07/06 12:06:49;;;;;;;;;;;;;;;26.25;34.14;102558.47;4991938;28;19976;-59
2022/07/06 12:09:15;;;;;;;;;;;;;;;26.28;32.34;102550.94;5007328;28;19917;-60
2022/07/06 12:11:43;;;;;;;;;;;;;;;25.94;32.38;102556.44;4995119;28;19992;-60
2022/07/06 12:14:15;;;;;;;;;;;;;;;25.96;31.63;102557.19;4995658;28;19910;-59
2022/07/06 12:16:41;;;;;;;;;;;;;;;25.75;35.09;102548.97;4994050;28;20340;-59
2022/07/06 12:19:07;;;;;;;;;;;;;;;25.98;31.95;102548.91;4995586;28;19914;-60
2022/07/06 12:21:33;;;;;;;;;;;;;;;26.16;32.05;102561.00;4995725;28;19917;-59
2022/07/06 12:23:58;;;;;;;;;;;;;;;26.28;31.11;102550.03;4995659;28;19910;-59
2022/07/06 12:26:25;;;;;;;;;;;;;;;26.16;30.90;102544.69;4995149;28;19916;-60
2022/07/06 12:29:00;;;;;;;;;;;;;;;25.91;31.13;102531.41;4995536;28;19917;-60
2022/07/06 12:31:36;;;;;;;;;;;;;;;25.46;32.71;102532.41;4995198;28;19914;-60
2022/07/06 12:34:01;;;;;;;;;;;;;;;25.51;33.26;102527.44;4994153;28;20004;-59